Birmingham, AL (35242)

11:36 AM CDT on March 29, 2015 (GMT -0500)
Thorn Berry | | Change Station
CLOSE
Current Station
Personal Weather Station
Location: Birmingham, AL
Elevation: 547 ft
Nearby Weather Stations

Elev 547 ft 33.40 °N, 86.72 °W | Updated 3 minutes ago

Partly Cloudy
Partly Cloudy
57.0 °F
Feels Like 57.0 °F
N
4.3
Wind Variable Wind from NW
Gusts 4.3 mph

Today
High -- | Low -- °F
--% Chance of Precip.
Yesterday
High -- | Low -- °F
Precip. -- in
6:38 AM 7:05 PM
Waxing Gibbous, 72% visible
Pressure 30.38 in
Visibility 10.0 miles
Clouds Few 6000 ft
Dew Point 26 °F
Humidity 30%
Rainfall 0.00 in
Snow Depth Not available.
UV 7 out of 12
Pollen 9.70 out of 12
Air Quality Not available.
Flu Activity Not available.
METAR KBHM 291553Z VRB06KT 10SM FEW060 12/M08 A3037 RMK AO2 SLP285 T01221083

More Conditions Fewer Conditions

Pressure 30.38 in
Visibility 10.0 miles
Clouds Few 6000 ft
Dew Point 26 °F
Humidity 30%
Rainfall 0.00 in
Snow Depth Not available.
UV 7 out of 12
Pollen 9.70 out of 12
Air Quality Not available.
Flu Activity Not available.
METAR KBHM 291553Z VRB06KT 10SM FEW060 12/M08 A3037 RMK AO2 SLP285 T01221083

More Conditions Fewer Conditions

10-Day Weather Forecast

Almanac

Astronomy

Mar. 29, 2015 Rise Set
Actual Time
Civil Twilight
Nautical Twilight
Astronomical Twilight
Moon
Length of Visible Light
Length of Day
Tomorrow will be .
, % of the Moon is Illuminated

Today's Extremes

State Highs State Lows

Community

WunderPhotos

Upload Photos

1,809,287 photos uploaded!

WunderBlogs® & News

Nearby

Air Quality

  Air Quality AQ Index Pollutant
Not available.

Snow Depth

Station Depth Elevation

Earthquake Activity

City Distance Mag. Time & Date
Minimum magnitude displayed is 2.5.

Coastal Water Temperatures

Place Temperature

Stations

Nearby Weather Stations

Station Location Temp. Windchill Dew Point Humidity Wind Precip. Elev Updated Type